sensor_id;sensor_type;location;lat;lon;timestamp;pressure;altitude;pressure_sealevel;temperature;humidity
29461;BME280;16428;47.836;35.106;2023-05-02T00:02:21;101842.44;;;9.15;100.00
29461;BME280;16428;47.836;35.106;2023-05-02T00:04:49;101848.91;;;9.12;100.00
29461;BME280;16428;47.836;35.106;2023-05-02T00:07:16;101849.44;;;9.06;100.00
29461;BME280;16428;47.836;35.106;2023-05-02T00:09:44;101848.59;;;8.96;100.00
29461;BME280;16428;47.836;35.106;2023-05-02T00:12:11;101856.19;;;8.91;100.00
29461;BME280;16428;47.836;35.106;2023-05-02T00:14:39;101860.13;;;8.87;100.00
29461;BME280;16428;47.836;35.106;2023-05-02T00:17:06;101859.28;;;8.77;100.00
29461;BME280;16428;47.836;35.106;2023-05-02T00:19:37;101864.31;;;8.61;100.00
29461;BME280;16428;47.836;35.106;2023-05-02T00:22:06;101861.38;;;8.64;100.00
29461;BME280;16428;47.836;35.106;2023-05-02T00:24:35;101867.38;;;8.56;100.00
29461;BME280;16428;47.836;35.106;2023-05-02T00:27:03;101870.78;;;8.58;100.00
29461;BME280;16428;47.836;35.106;2023-05-02T00:29:31;101868.81;;;8.60;100.00
29461;BME280;16428;47.836;35.106;2023-05-02T00:31:58;101878.41;;;8.63;100.00
29461;BME280;16428;47.836;35.106;2023-05-02T00:34:29;101875.03;;;8.61;100.00
29461;BME280;16428;47.836;35.106;2023-05-02T00:36:58;101874.22;;;8.70;100.00
29461;BME280;16428;47.836;35.106;2023-05-02T00:39:25;101876.59;;;8.63;100.00
29461;BME280;16428;47.836;35.106;2023-05-02T00:41:59;101878.00;;;8.67;100.00
29461;BME280;16428;47.836;35.106;2023-05-02T00:44:27;101880.44;;;8.70;100.00
29461;BME280;16428;47.836;35.106;2023-05-02T00:46:55;101875.03;;;8.61;100.00
29461;BME280;16428;47.836;35.106;2023-05-02T00:49:23;101882.94;;;8.72;100.00
29461;BME280;16428;47.836;35.106;2023-05-02T00:51:52;101886.00;;;8.58;100.00
29461;BME280;16428;47.836;35.106;2023-05-02T00:54:20;101886.97;;;8.57;100.00
29461;BME280;16428;47.836;35.106;2023-05-02T00:56:48;101893.09;;;8.68;100.00
29461;BME280;16428;47.836;35.106;2023-05-02T00:59:15;101893.78;;;8.61;100.00
29461;BME280;16428;47.836;35.106;2023-05-02T01:04:40;101902.25;;;8.66;100.00
29461;BME280;16428;47.836;35.106;2023-05-02T01:10:34;101899.47;;;8.77;100.00
29461;BME280;16428;47.836;35.106;2023-05-02T01:13:12;101906.38;;;8.70;100.00
29461;BME280;16428;47.836;35.106;2023-05-02T01:15:41;101906.91;;;8.73;100.00
29461;BME280;16428;47.836;35.106;2023-05-02T01:18:12;101908.03;;;8.71;100.00
29461;BME280;16428;47.836;35.106;2023-05-02T01:20:43;101914.69;;;8.76;100.00
29461;BME280;16428;47.836;35.106;2023-05-02T01:23:45;101911.03;;;8.77;100.00
29461;BME280;16428;47.836;35.106;2023-05-02T01:31:20;101909.31;;;8.67;100.00
29461;BME280;16428;47.836;35.106;2023-05-02T01:33:51;101916.25;;;8.79;100.00
29461;BME280;16428;47.836;35.106;2023-05-02T01:36:21;101922.94;;;8.94;100.00
29461;BME280;16428;47.836;35.106;2023-05-02T01:38:53;101922.78;;;8.96;100.00
29461;BME280;16428;47.836;35.106;2023-05-02T01:41:25;101926.72;;;8.82;100.00
29461;BME280;16428;47.836;35.106;2023-05-02T01:43:58;101936.13;;;8.76;100.00
29461;BME280;16428;47.836;35.106;2023-05-02T01:46:26;101930.53;;;8.89;100.00
29461;BME280;16428;47.836;35.106;2023-05-02T01:49:01;101930.69;;;8.97;100.00
29461;BME280;16428;47.836;35.106;2023-05-02T01:51:32;101939.25;;;8.81;100.00
29461;BME280;16428;47.836;35.106;2023-05-02T01:54:03;101936.88;;;8.88;100.00
29461;BME280;16428;47.836;35.106;2023-05-02T01:56:37;101941.69;;;8.94;100.00
29461;BME280;16428;47.836;35.106;2023-05-02T01:59:07;101944.19;;;8.86;100.00
29461;BME280;16428;47.836;35.106;2023-05-02T02:01:38;101940.25;;;8.90;100.00
29461;BME280;16428;47.836;35.106;2023-05-02T02:04:08;101943.66;;;8.92;100.00
29461;BME280;16428;47.836;35.106;2023-05-02T02:06:36;101946.66;;;8.99;100.00
29461;BME280;16428;47.836;35.106;2023-05-02T02:09:04;101938.56;;;8.89;100.00
29461;BME280;16428;47.836;35.106;2023-05-02T02:12:11;101939.16;;;9.02;100.00
29461;BME280;16428;47.836;35.106;2023-05-02T02:14:49;101950.97;;;8.90;100.00
29461;BME280;16428;47.836;35.106;2023-05-02T02:17:29;101952.09;;;8.88;100.00
29461;BME280;16428;47.836;35.106;2023-05-02T02:20:00;101957.59;;;8.86;100.00
29461;BME280;16428;47.836;35.106;2023-05-02T02:22:33;101963.66;;;8.88;100.00
29461;BME280;16428;47.836;35.106;2023-05-02T02:25:05;101962.53;;;8.81;100.00
29461;BME280;16428;47.836;35.106;2023-05-02T02:27:36;101968.72;;;8.81;100.00
29461;BME280;16428;47.836;35.106;2023-05-02T02:30:04;101969.03;;;8.88;100.00
29461;BME280;16428;47.836;35.106;2023-05-02T02:32:32;101968.16;;;8.88;100.00
29461;BME280;16428;47.836;35.106;2023-05-02T02:35:00;101980.88;;;8.86;100.00
29461;BME280;16428;47.836;35.106;2023-05-02T02:37:38;101981.41;;;8.79;100.00
29461;BME280;16428;47.836;35.106;2023-05-02T02:40:15;101988.00;;;8.75;100.00
29461;BME280;16428;47.836;35.106;2023-05-02T02:48:56;101996.28;;;8.63;100.00
29461;BME280;16428;47.836;35.106;2023-05-02T02:51:38;101999.66;;;8.65;100.00
29461;BME280;16428;47.836;35.106;2023-05-02T02:57:00;102012.34;;;8.63;100.00
29461;BME280;16428;47.836;35.106;2023-05-02T02:59:34;102012.88;;;8.57;100.00
29461;BME280;16428;47.836;35.106;2023-05-02T03:02:07;102023.56;;;8.57;100.00
29461;BME280;16428;47.836;35.106;2023-05-02T03:04:38;102028.75;;;8.69;100.00
29461;BME280;16428;47.836;35.106;2023-05-02T03:07:08;102029.25;;;8.63;100.00
29461;BME280;16428;47.836;35.106;2023-05-02T03:09:42;102035.84;;;8.80;100.00
29461;BME280;16428;47.836;35.106;2023-05-02T03:12:10;102043.13;;;8.68;100.00
29461;BME280;16428;47.836;35.106;2023-05-02T03:14:39;102044.72;;;8.80;100.00
29461;BME280;16428;47.836;35.106;2023-05-02T03:17:06;102046.00;;;8.86;100.00
29461;BME280;16428;47.836;35.106;2023-05-02T03:19:37;102045.03;;;8.87;100.00
29461;BME280;16428;47.836;35.106;2023-05-02T03:22:05;102052.91;;;8.79;100.00
29461;BME280;16428;47.836;35.106;2023-05-02T03:24:32;102048.88;;;8.94;100.00
29461;BME280;16428;47.836;35.106;2023-05-02T03:26:59;102055.41;;;9.01;100.00
29461;BME280;16428;47.836;35.106;2023-05-02T03:29:27;102048.53;;;9.08;100.00
29461;BME280;16428;47.836;35.106;2023-05-02T03:31:54;102058.53;;;9.06;100.00
29461;BME280;16428;47.836;35.106;2023-05-02T03:34:22;102059.72;;;9.13;100.00
29461;BME280;16428;47.836;35.106;2023-05-02T03:36:50;102048.72;;;9.16;100.00
29461;BME280;16428;47.836;35.106;2023-05-02T03:39:17;102056.91;;;9.25;100.00
29461;BME280;16428;47.836;35.106;2023-05-02T03:41:44;102069.09;;;9.29;100.00
29461;BME280;16428;47.836;35.106;2023-05-02T03:44:12;102072.63;;;9.39;100.00
29461;BME280;16428;47.836;35.106;2023-05-02T03:46:40;102076.75;;;9.43;100.00
29461;BME280;16428;47.836;35.106;2023-05-02T03:49:07;102075.03;;;9.42;100.00
29461;BME280;16428;47.836;35.106;2023-05-02T03:51:35;102077.47;;;9.45;100.00
29461;BME280;16428;47.836;35.106;2023-05-02T03:54:03;102075.13;;;9.61;100.00
29461;BME280;16428;47.836;35.106;2023-05-02T03:56:30;102076.50;;;9.65;100.00
29461;BME280;16428;47.836;35.106;2023-05-02T03:58:58;102071.59;;;9.70;100.00
29461;BME280;16428;47.836;35.106;2023-05-02T04:01:26;102080.50;;;9.80;100.00
29461;BME280;16428;47.836;35.106;2023-05-02T04:03:53;102083.31;;;9.79;100.00
29461;BME280;16428;47.836;35.106;2023-05-02T04:06:21;102084.47;;;9.96;100.00
29461;BME280;16428;47.836;35.106;2023-05-02T04:08:48;102088.59;;;10.00;100.00
29461;BME280;16428;47.836;35.106;2023-05-02T04:11:15;102093.69;;;10.03;100.00
29461;BME280;16428;47.836;35.106;2023-05-02T04:13:43;102091.56;;;10.16;100.00
29461;BME280;16428;47.836;35.106;2023-05-02T04:16:10;102097.53;;;10.19;100.00
29461;BME280;16428;47.836;35.106;2023-05-02T04:18:38;102094.72;;;10.21;100.00
29461;BME280;16428;47.836;35.106;2023-05-02T04:21:06;102096.97;;;10.26;100.00
29461;BME280;16428;47.836;35.106;2023-05-02T04:23:35;102104.03;;;10.36;100.00
29461;BME280;16428;47.836;35.106;2023-05-02T04:26:02;102109.41;;;10.36;100.00
29461;BME280;16428;47.836;35.106;2023-05-02T04:28:30;102106.72;;;10.36;100.00
29461;BME280;16428;47.836;35.106;2023-05-02T04:30:57;102106.72;;;10.36;100.00
29461;BME280;16428;47.836;35.106;2023-05-02T04:33:25;102121.00;;;10.66;100.00
29461;BME280;16428;47.836;35.106;2023-05-02T04:35:52;102123.78;;;10.74;100.00
29461;BME280;16428;47.836;35.106;2023-05-02T04:38:20;102118.13;;;10.77;100.00
29461;BME280;16428;47.836;35.106;2023-05-02T04:40:49;102122.94;;;10.83;100.00
29461;BME280;16428;47.836;35.106;2023-05-02T04:43:18;102129.44;;;10.90;100.00
29461;BME280;16428;47.836;35.106;2023-05-02T04:45:45;102132.94;;;11.00;100.00
29461;BME280;16428;47.836;35.106;2023-05-02T04:48:13;102134.50;;;11.03;100.00
29461;BME280;16428;47.836;35.106;2023-05-02T04:50:40;102139.41;;;11.17;100.00
29461;BME280;16428;47.836;35.106;2023-05-02T04:53:08;102135.56;;;11.19;100.00
29461;BME280;16428;47.836;35.106;2023-05-02T04:55:36;102145.16;;;11.32;100.00
29461;BME280;16428;47.836;35.106;2023-05-02T04:58:03;102146.00;;;11.42;100.00
29461;BME280;16428;47.836;35.106;2023-05-02T05:00:31;102154.34;;;11.39;100.00
29461;BME280;16428;47.836;35.106;2023-05-02T05:02:58;102149.63;;;11.50;100.00
29461;BME280;16428;47.836;35.106;2023-05-02T05:05:28;102149.69;;;11.68;100.00
29461;BME280;16428;47.836;35.106;2023-05-02T05:07:56;102152.94;;;11.72;100.00
29461;BME280;16428;47.836;35.106;2023-05-02T05:10:23;102159.41;;;11.88;100.00
29461;BME280;16428;47.836;35.106;2023-05-02T05:12:50;102149.84;;;11.67;100.00
29461;BME280;16428;47.836;35.106;2023-05-02T05:15:19;102161.56;;;11.75;100.00
29461;BME280;16428;47.836;35.106;2023-05-02T05:17:50;102164.38;;;11.83;100.00
29461;BME280;16428;47.836;35.106;2023-05-02T05:20:17;102168.97;;;12.01;100.00
29461;BME280;16428;47.836;35.106;2023-05-02T05:22:46;102165.47;;;12.18;100.00
29461;BME280;16428;47.836;35.106;2023-05-02T05:25:13;102160.47;;;11.95;100.00
29461;BME280;16428;47.836;35.106;2023-05-02T05:27:41;102163.28;;;12.04;100.00
29461;BME280;16428;47.836;35.106;2023-05-02T05:30:09;102168.16;;;12.18;100.00
29461;BME280;16428;47.836;35.106;2023-05-02T05:32:37;102161.69;;;12.28;100.00
29461;BME280;16428;47.836;35.106;2023-05-02T05:35:06;102171.78;;;12.44;100.00
29461;BME280;16428;47.836;35.106;2023-05-02T05:37:33;102175.38;;;12.53;100.00
29461;BME280;16428;47.836;35.106;2023-05-02T05:40:07;102180.63;;;12.72;100.00
29461;BME280;16428;47.836;35.106;2023-05-02T05:42:35;102176.38;;;12.69;100.00
29461;BME280;16428;47.836;35.106;2023-05-02T05:45:03;102185.88;;;12.74;99.91
29461;BME280;16428;47.836;35.106;2023-05-02T05:47:30;102175.38;;;12.88;99.63
29461;BME280;16428;47.836;35.106;2023-05-02T05:49:58;102183.53;;;12.96;99.68
29461;BME280;16428;47.836;35.106;2023-05-02T05:52:27;102179.50;;;13.00;100.00
29461;BME280;16428;47.836;35.106;2023-05-02T05:54:54;102180.47;;;12.91;100.00
29461;BME280;16428;47.836;35.106;2023-05-02T05:57:26;102185.75;;;13.01;97.81
29461;BME280;16428;47.836;35.106;2023-05-02T05:59:53;102186.59;;;13.19;98.36
29461;BME280;16428;47.836;35.106;2023-05-02T06:02:20;102182.84;;;12.94;98.09
29461;BME280;16428;47.836;35.106;2023-05-02T06:04:49;102183.75;;;13.03;98.27
29461;BME280;16428;47.836;35.106;2023-05-02T06:07:17;102186.66;;;13.27;97.49
29461;BME280;16428;47.836;35.106;2023-05-02T06:09:44;102188.13;;;13.48;93.91
29461;BME280;16428;47.836;35.106;2023-05-02T06:12:12;102187.81;;;13.51;93.35
29461;BME280;16428;47.836;35.106;2023-05-02T06:14:39;102186.00;;;13.59;92.11
29461;BME280;16428;47.836;35.106;2023-05-02T06:17:07;102192.72;;;13.89;92.26
29461;BME280;16428;47.836;35.106;2023-05-02T06:19:35;102196.91;;;13.84;88.93
29461;BME280;16428;47.836;35.106;2023-05-02T06:22:02;102198.84;;;14.07;88.25
29461;BME280;16428;47.836;35.106;2023-05-02T06:24:30;102188.41;;;14.21;85.31
29461;BME280;16428;47.836;35.106;2023-05-02T06:26:57;102197.56;;;14.28;84.39
29461;BME280;16428;47.836;35.106;2023-05-02T06:29:25;102204.94;;;14.09;77.06
29461;BME280;16428;47.836;35.106;2023-05-02T06:31:56;102191.47;;;14.18;77.16
29461;BME280;16428;47.836;35.106;2023-05-02T06:34:23;102198.50;;;14.45;78.05
29461;BME280;16428;47.836;35.106;2023-05-02T06:36:55;102191.59;;;14.66;78.09
29461;BME280;16428;47.836;35.106;2023-05-02T06:39:23;102193.25;;;14.67;73.67
29461;BME280;16428;47.836;35.106;2023-05-02T06:41:50;102193.09;;;14.85;75.28
29461;BME280;16428;47.836;35.106;2023-05-02T06:44:22;102195.66;;;14.78;72.74
29461;BME280;16428;47.836;35.106;2023-05-02T06:46:50;102199.38;;;15.10;73.52
29461;BME280;16428;47.836;35.106;2023-05-02T06:49:17;102201.38;;;15.24;75.22
29461;BME280;16428;47.836;35.106;2023-05-02T06:51:45;102195.56;;;15.43;72.93
29461;BME280;16428;47.836;35.106;2023-05-02T06:54:12;102209.78;;;15.62;73.22
29461;BME280;16428;47.836;35.106;2023-05-02T06:56:41;102208.75;;;15.71;70.30
29461;BME280;16428;47.836;35.106;2023-05-02T06:59:09;102201.88;;;15.36;64.17
29461;BME280;16428;47.836;35.106;2023-05-02T07:01:36;102203.72;;;15.35;66.86
29461;BME280;16428;47.836;35.106;2023-05-02T07:04:04;102217.22;;;15.68;64.63
29461;BME280;16428;47.836;35.106;2023-05-02T07:06:32;102211.75;;;15.84;66.64
29461;BME280;16428;47.836;35.106;2023-05-02T07:09:00;102211.06;;;15.82;67.30
29461;BME280;16428;47.836;35.106;2023-05-02T07:11:27;102212.47;;;15.70;64.82
29461;BME280;16428;47.836;35.106;2023-05-02T07:13:55;102210.34;;;15.96;65.11
29461;BME280;16428;47.836;35.106;2023-05-02T07:16:23;102210.16;;;15.98;63.73
29461;BME280;16428;47.836;35.106;2023-05-02T07:18:50;102214.31;;;16.16;64.43
29461;BME280;16428;47.836;35.106;2023-05-02T07:21:17;102211.06;;;16.21;63.02
29461;BME280;16428;47.836;35.106;2023-05-02T07:23:45;102213.59;;;16.23;63.44
29461;BME280;16428;47.836;35.106;2023-05-02T07:26:12;102222.66;;;16.38;63.82
29461;BME280;16428;47.836;35.106;2023-05-02T07:28:40;102218.44;;;16.35;60.67
29461;BME280;16428;47.836;35.106;2023-05-02T07:31:07;102214.75;;;16.59;60.85
29461;BME280;16428;47.836;35.106;2023-05-02T07:33:35;102219.28;;;16.36;60.69
29461;BME280;16428;47.836;35.106;2023-05-02T07:36:02;102220.31;;;16.66;57.98
29461;BME280;16428;47.836;35.106;2023-05-02T07:38:30;102214.13;;;16.80;56.11
29461;BME280;16428;47.836;35.106;2023-05-02T07:40:58;102203.19;;;16.88;57.31
29461;BME280;16428;47.836;35.106;2023-05-02T07:43:26;102215.91;;;16.87;55.42
29461;BME280;16428;47.836;35.106;2023-05-02T07:45:54;102213.97;;;16.96;50.74
29461;BME280;16428;47.836;35.106;2023-05-02T07:48:22;102222.19;;;16.88;50.84
29461;BME280;16428;47.836;35.106;2023-05-02T07:50:53;102222.94;;;17.19;49.26
29461;BME280;16428;47.836;35.106;2023-05-02T07:53:21;102216.34;;;17.14;49.00
29461;BME280;16428;47.836;35.106;2023-05-02T07:55:48;102214.63;;;17.36;49.73
29461;BME280;16428;47.836;35.106;2023-05-02T07:58:16;102212.59;;;17.52;52.09
29461;BME280;16428;47.836;35.106;2023-05-02T08:00:43;102217.50;;;17.72;51.92
29461;BME280;16428;47.836;35.106;2023-05-02T08:03:11;102223.50;;;17.82;46.87
29461;BME280;16428;47.836;35.106;2023-05-02T08:05:39;102210.94;;;17.81;48.64
29461;BME280;16428;47.836;35.106;2023-05-02T08:08:06;102219.25;;;17.94;48.40
29461;BME280;16428;47.836;35.106;2023-05-02T08:10:34;102226.94;;;17.90;45.14
29461;BME280;16428;47.836;35.106;2023-05-02T08:13:01;102220.41;;;17.70;44.11
29461;BME280;16428;47.836;35.106;2023-05-02T08:15:29;102212.53;;;17.75;48.74
29461;BME280;16428;47.836;35.106;2023-05-02T08:17:57;102210.25;;;18.08;45.43
29461;BME280;16428;47.836;35.106;2023-05-02T08:20:26;102200.56;;;18.20;46.65
29461;BME280;16428;47.836;35.106;2023-05-02T08:22:53;102211.16;;;18.51;46.88
29461;BME280;16428;47.836;35.106;2023-05-02T08:25:21;102207.22;;;18.33;53.17
29461;BME280;16428;47.836;35.106;2023-05-02T08:27:48;102209.34;;;18.73;47.14
29461;BME280;16428;47.836;35.106;2023-05-02T08:30:15;102212.94;;;18.80;42.49
29461;BME280;16428;47.836;35.106;2023-05-02T08:32:44;102210.59;;;18.56;47.65
29461;BME280;16428;47.836;35.106;2023-05-02T08:35:13;102202.53;;;18.63;45.96
29461;BME280;16428;47.836;35.106;2023-05-02T08:37:40;102212.72;;;18.39;45.74
29461;BME280;16428;47.836;35.106;2023-05-02T08:40:10;102212.63;;;17.82;45.05
29461;BME280;16428;47.836;35.106;2023-05-02T08:42:41;102209.00;;;18.25;44.53
29461;BME280;16428;47.836;35.106;2023-05-02T08:45:11;102209.75;;;18.19;41.77
29461;BME280;16428;47.836;35.106;2023-05-02T08:47:43;102199.81;;;18.63;46.15
29461;BME280;16428;47.836;35.106;2023-05-02T08:50:12;102204.44;;;19.11;43.17
29461;BME280;16428;47.836;35.106;2023-05-02T08:52:40;102189.56;;;18.86;40.02
29461;BME280;16428;47.836;35.106;2023-05-02T08:55:09;102187.81;;;18.78;44.32
29461;BME280;16428;47.836;35.106;2023-05-02T08:57:38;102185.69;;;18.74;41.54
29461;BME280;16428;47.836;35.106;2023-05-02T09:00:07;102199.47;;;18.72;39.21
29461;BME280;16428;47.836;35.106;2023-05-02T09:02:43;102203.75;;;19.03;40.94
29461;BME280;16428;47.836;35.106;2023-05-02T09:05:18;102196.63;;;19.29;42.20
29461;BME280;16428;47.836;35.106;2023-05-02T09:07:48;102188.16;;;19.18;42.73
29461;BME280;16428;47.836;35.106;2023-05-02T09:10:15;102194.78;;;19.37;37.52
29461;BME280;16428;47.836;35.106;2023-05-02T09:12:43;102194.16;;;19.41;38.76
29461;BME280;16428;47.836;35.106;2023-05-02T09:15:12;102199.94;;;19.87;38.30
29461;BME280;16428;47.836;35.106;2023-05-02T09:17:41;102195.16;;;19.96;40.61
29461;BME280;16428;47.836;35.106;2023-05-02T09:20:14;102195.66;;;19.72;38.75
29461;BME280;16428;47.836;35.106;2023-05-02T09:22:50;102200.63;;;19.61;38.47
29461;BME280;16428;47.836;35.106;2023-05-02T09:25:20;102198.34;;;20.06;39.43
29461;BME280;16428;47.836;35.106;2023-05-02T09:30:20;102199.63;;;20.17;38.72
29461;BME280;16428;47.836;35.106;2023-05-02T09:32:49;102199.69;;;20.30;39.41
29461;BME280;16428;47.836;35.106;2023-05-02T09:35:23;102193.19;;;20.31;42.26
29461;BME280;16428;47.836;35.106;2023-05-02T09:37:52;102197.94;;;20.09;38.91
29461;BME280;16428;47.836;35.106;2023-05-02T09:40:20;102202.69;;;20.42;39.56
29461;BME280;16428;47.836;35.106;2023-05-02T09:42:47;102204.53;;;20.28;39.08
29461;BME280;16428;47.836;35.106;2023-05-02T09:45:20;102206.88;;;20.38;37.77
29461;BME280;16428;47.836;35.106;2023-05-02T09:51:37;102210.38;;;20.25;37.73
29461;BME280;16428;47.836;35.106;2023-05-02T09:58:21;102196.91;;;19.69;36.75
29461;BME280;16428;47.836;35.106;2023-05-02T10:00:49;102196.25;;;20.08;38.19
29461;BME280;16428;47.836;35.106;2023-05-02T10:03:18;102202.34;;;20.10;34.35
29461;BME280;16428;47.836;35.106;2023-05-02T10:05:46;102198.84;;;20.29;35.40
29461;BME280;16428;47.836;35.106;2023-05-02T10:08:15;102201.47;;;20.64;36.94
29461;BME280;16428;47.836;35.106;2023-05-02T10:10:53;102190.75;;;20.56;36.29
29461;BME280;16428;47.836;35.106;2023-05-02T10:13:23;102194.75;;;20.60;37.80
29461;BME280;16428;47.836;35.106;2023-05-02T10:15:58;102193.09;;;20.85;38.40
29461;BME280;16428;47.836;35.106;2023-05-02T10:18:31;102196.44;;;20.67;38.28
29461;BME280;16428;47.836;35.106;2023-05-02T10:21:04;102203.00;;;20.99;37.33
29461;BME280;16428;47.836;35.106;2023-05-02T10:23:34;102192.91;;;21.06;36.87
29461;BME280;16428;47.836;35.106;2023-05-02T10:26:02;102204.69;;;21.33;36.96
29461;BME280;16428;47.836;35.106;2023-05-02T10:28:30;102197.75;;;21.37;35.26
29461;BME280;16428;47.836;35.106;2023-05-02T10:30:59;102199.63;;;21.11;36.25
29461;BME280;16428;47.836;35.106;2023-05-02T10:33:29;102191.84;;;21.14;36.78
29461;BME280;16428;47.836;35.106;2023-05-02T10:35:58;102201.78;;;21.22;36.06
29461;BME280;16428;47.836;35.106;2023-05-02T10:38:26;102201.50;;;21.56;37.02
29461;BME280;16428;47.836;35.106;2023-05-02T10:40:58;102202.31;;;21.63;36.30
29461;BME280;16428;47.836;35.106;2023-05-02T10:43:30;102201.03;;;21.72;35.51
29461;BME280;16428;47.836;35.106;2023-05-02T10:45:58;102205.88;;;21.70;32.92
29461;BME280;16428;47.836;35.106;2023-05-02T10:48:26;102199.19;;;21.47;35.39
29461;BME280;16428;47.836;35.106;2023-05-02T10:50:57;102197.09;;;21.49;35.88
29461;BME280;16428;47.836;35.106;2023-05-02T10:53:32;102195.38;;;21.54;36.46
29461;BME280;16428;47.836;35.106;2023-05-02T10:56:19;102198.44;;;21.91;35.86
29461;BME280;16428;47.836;35.106;2023-05-02T10:58:49;102197.06;;;21.55;35.88
29461;BME280;16428;47.836;35.106;2023-05-02T11:03:57;102212.81;;;21.80;34.66
29461;BME280;16428;47.836;35.106;2023-05-02T11:06:26;102189.53;;;20.98;35.53
29461;BME280;16428;47.836;35.106;2023-05-02T11:14:11;102196.06;;;21.30;36.47
29461;BME280;16428;47.836;35.106;2023-05-02T11:19:27;102199.41;;;21.52;35.37
29461;BME280;16428;47.836;35.106;2023-05-02T11:24:47;102190.16;;;20.93;36.37
29461;BME280;16428;47.836;35.106;2023-05-02T11:30:07;102194.59;;;21.08;36.06
29461;BME280;16428;47.836;35.106;2023-05-02T11:35:28;102193.91;;;20.66;33.78
29461;BME280;16428;47.836;35.106;2023-05-02T11:38:10;102197.34;;;21.08;34.77
29461;BME280;16428;47.836;35.106;2023-05-02T11:40:38;102196.50;;;21.27;32.45
29461;BME280;16428;47.836;35.106;2023-05-02T11:43:14;102190.59;;;21.03;32.72
29461;BME280;16428;47.836;35.106;2023-05-02T11:45:41;102190.59;;;21.30;32.92
29461;BME280;16428;47.836;35.106;2023-05-02T11:48:12;102192.69;;;21.41;32.74
29461;BME280;16428;47.836;35.106;2023-05-02T11:50:47;102194.91;;;21.77;33.18
29461;BME280;16428;47.836;35.106;2023-05-02T11:53:19;102189.59;;;21.95;33.94
29461;BME280;16428;47.836;35.106;2023-05-02T11:55:52;102201.28;;;22.22;32.39
29461;BME280;16428;47.836;35.106;2023-05-02T11:58:21;102187.22;;;22.50;31.41
29461;BME280;16428;47.836;35.106;2023-05-02T12:00:50;102184.69;;;23.11;31.38
29461;BME280;16428;47.836;35.106;2023-05-02T12:03:36;102184.59;;;23.00;31.56
29461;BME280;16428;47.836;35.106;2023-05-02T12:06:13;102182.97;;;23.60;32.97
29461;BME280;16428;47.836;35.106;2023-05-02T12:08:42;102174.81;;;23.29;30.34
29461;BME280;16428;47.836;35.106;2023-05-02T12:11:14;102175.28;;;23.26;30.09
29461;BME280;16428;47.836;35.106;2023-05-02T12:13:47;102178.66;;;23.46;29.13
29461;BME280;16428;47.836;35.106;2023-05-02T12:16:16;102176.16;;;23.99;29.73
29461;BME280;16428;47.836;35.106;2023-05-02T12:18:46;102173.34;;;24.24;28.64
29461;BME280;16428;47.836;35.106;2023-05-02T12:21:14;102169.38;;;24.02;28.22
29461;BME280;16428;47.836;35.106;2023-05-02T12:23:42;102175.44;;;24.40;28.22
29461;BME280;16428;47.836;35.106;2023-05-02T12:26:23;102166.59;;;24.20;28.46
29461;BME280;16428;47.836;35.106;2023-05-02T12:28:59;102170.59;;;24.06;28.79
29461;BME280;16428;47.836;35.106;2023-05-02T12:31:28;102162.03;;;24.14;28.12
29461;BME280;16428;47.836;35.106;2023-05-02T12:33:58;102171.81;;;24.70;28.18
29461;BME280;16428;47.836;35.106;2023-05-02T12:36:27;102163.34;;;24.83;27.60
29461;BME280;16428;47.836;35.106;2023-05-02T12:39:00;102145.28;;;23.49;27.63
29461;BME280;16428;47.836;35.106;2023-05-02T12:41:36;102162.81;;;24.63;28.06
29461;BME280;16428;47.836;35.106;2023-05-02T12:44:04;102178.59;;;25.32;26.20
29461;BME280;16428;47.836;35.106;2023-05-02T12:46:33;102162.09;;;24.97;27.78
29461;BME280;16428;47.836;35.106;2023-05-02T12:49:06;102171.66;;;24.65;27.66
29461;BME280;16428;47.836;35.106;2023-05-02T12:51:36;102168.41;;;25.09;28.31
29461;BME280;16428;47.836;35.106;2023-05-02T12:54:04;102165.72;;;24.91;25.62
29461;BME280;16428;47.836;35.106;2023-05-02T12:56:39;102173.56;;;25.41;26.36
29461;BME280;16428;47.836;35.106;2023-05-02T12:59:07;102170.81;;;25.29;27.17
29461;BME280;16428;47.836;35.106;2023-05-02T13:01:35;102164.94;;;25.49;26.81
29461;BME280;16428;47.836;35.106;2023-05-02T13:04:03;102175.41;;;24.70;25.16
29461;BME280;16428;47.836;35.106;2023-05-02T13:06:32;102175.41;;;24.82;25.14
29461;BME280;16428;47.836;35.106;2023-05-02T13:08:59;102174.69;;;24.75;26.16
29461;BME280;16428;47.836;35.106;2023-05-02T13:11:27;102166.03;;;25.24;26.55
29461;BME280;16428;47.836;35.106;2023-05-02T13:13:54;102167.25;;;24.64;27.09
29461;BME280;16428;47.836;35.106;2023-05-02T13:16:22;102172.84;;;25.22;28.03
29461;BME280;16428;47.836;35.106;2023-05-02T13:18:50;102174.63;;;25.75;26.75
29461;BME280;16428;47.836;35.106;2023-05-02T13:21:17;102180.38;;;25.73;26.07
29461;BME280;16428;47.836;35.106;2023-05-02T13:23:48;102178.53;;;25.90;25.57
29461;BME280;16428;47.836;35.106;2023-05-02T13:26:17;102174.03;;;25.49;26.48
29461;BME280;16428;47.836;35.106;2023-05-02T13:28:45;102179.88;;;25.53;26.99
29461;BME280;16428;47.836;35.106;2023-05-02T13:31:12;102176.06;;;25.77;26.82
29461;BME280;16428;47.836;35.106;2023-05-02T13:33:40;102179.72;;;25.95;27.72
29461;BME280;16428;47.836;35.106;2023-05-02T13:36:07;102181.72;;;25.99;26.71
29461;BME280;16428;47.836;35.106;2023-05-02T13:38:35;102180.44;;;26.30;25.92
29461;BME280;16428;47.836;35.106;2023-05-02T13:41:03;102180.97;;;25.75;25.83